createdAt,value
2023-02-19T00:00:25.757Z,80.79
2023-02-19T00:01:26.647Z,80.48
2023-02-19T00:02:27.514Z,80.38
2023-02-19T00:03:28.410Z,79.66
2023-02-19T00:04:29.381Z,79.38
2023-02-19T00:05:30.286Z,79.28
2023-02-19T00:06:31.146Z,79.18
2023-02-19T00:07:32.051Z,79.38
2023-02-19T00:08:32.965Z,79.73
2023-02-19T00:09:33.863Z,80.46
2023-02-19T00:10:34.746Z,81.28
2023-02-19T00:11:35.654Z,81.38
2023-02-19T00:12:36.345Z,80.87
2023-02-19T00:13:37.227Z,80.66
2023-02-19T00:14:38.121Z,80.87
2023-02-19T00:15:39.047Z,80.35
2023-02-19T00:16:39.903Z,80.25
2023-02-19T00:17:40.807Z,80.35
2023-02-19T00:18:41.649Z,80.66
2023-02-19T00:19:42.558Z,81.07
2023-02-19T00:20:43.439Z,81.38
2023-02-19T00:21:44.315Z,81.59
2023-02-19T00:22:45.200Z,81.63
2023-02-19T00:23:46.120Z,81.94
2023-02-19T00:24:49.205Z,82.35
2023-02-19T00:25:47.613Z,82.35
2023-02-19T00:26:48.497Z,81.63
2023-02-19T00:27:49.383Z,81.52
2023-02-19T00:28:50.286Z,80.80
2023-02-19T00:29:51.208Z,79.97
2023-02-19T00:30:52.105Z,79.46
2023-02-19T00:31:53.066Z,78.63
2023-02-19T00:32:53.469Z,78.88
2023-02-19T00:33:54.350Z,78.67
2023-02-19T00:34:55.252Z,78.46
2023-02-19T00:35:56.170Z,78.67
2023-02-19T00:36:57.040Z,78.56
2023-02-19T00:37:57.914Z,78.67
2023-02-19T00:38:58.807Z,80.26
2023-02-19T00:39:59.716Z,80.15
2023-02-19T00:41:00.599Z,79.74
2023-02-19T00:42:01.470Z,79.43
2023-02-19T00:43:02.359Z,79.22
2023-02-19T00:44:03.250Z,79.22
2023-02-19T00:45:04.122Z,79.98
2023-02-19T00:46:05.062Z,80.50
2023-02-19T00:47:05.906Z,81.02
2023-02-19T00:48:06.782Z,81.12
2023-02-19T00:49:07.665Z,82.36
2023-02-19T00:50:08.548Z,82.05
2023-02-19T00:51:09.821Z,82.57
2023-02-19T00:52:10.296Z,82.78
2023-02-19T00:53:11.199Z,82.88
2023-02-19T00:54:12.101Z,82.78
2023-02-19T00:55:13.006Z,82.15
2023-02-19T00:56:13.884Z,81.54
2023-02-19T00:57:14.767Z,81.33
2023-02-19T00:58:15.649Z,81.23
2023-02-19T00:59:16.536Z,81.12
2023-02-19T01:00:17.433Z,81.02
2023-02-19T01:01:18.357Z,81.33
2023-02-19T01:02:19.197Z,81.23
2023-02-19T01:03:20.079Z,81.74
2023-02-19T01:04:21.011Z,82.05
2023-02-19T01:05:21.890Z,82.98
2023-02-19T01:06:22.747Z,83.09
2023-02-19T01:07:23.627Z,83.40
2023-02-19T01:08:24.548Z,83.50
2023-02-19T01:09:25.391Z,83.29
2023-02-19T01:10:26.274Z,83.40
2023-02-19T01:11:27.156Z,83.29
2023-02-19T01:12:28.038Z,83.09
2023-02-19T01:13:28.953Z,83.29
2023-02-19T01:14:29.828Z,83.61
2023-02-19T01:15:30.713Z,83.09
2023-02-19T01:16:31.611Z,82.46
2023-02-19T01:17:32.478Z,82.26
2023-02-19T01:18:33.349Z,82.26
2023-02-19T01:19:34.271Z,82.36
2023-02-19T01:20:35.139Z,82.26
2023-02-19T01:21:36.024Z,82.36
2023-02-19T01:22:36.893Z,82.36
2023-02-19T01:23:37.774Z,81.74
2023-02-19T01:24:38.651Z,81.54
2023-02-19T01:25:39.593Z,81.33
2023-02-19T01:26:40.440Z,81.12
2023-02-19T01:27:41.312Z,81.43
2023-02-19T01:28:42.182Z,81.47
2023-02-19T01:29:43.080Z,81.99
2023-02-19T01:30:44.009Z,82.19
2023-02-19T01:31:45.028Z,82.19
2023-02-19T01:32:45.375Z,82.50
2023-02-19T01:33:46.254Z,81.99
2023-02-19T01:34:47.143Z,82.40
2023-02-19T01:35:48.030Z,82.19
2023-02-19T01:36:48.914Z,82.29
2023-02-19T01:37:49.801Z,82.29
2023-02-19T01:38:50.730Z,82.40
2023-02-19T01:39:51.577Z,82.71
2023-02-19T01:40:52.469Z,82.50
2023-02-19T01:41:53.353Z,81.99
2023-02-19T01:42:54.235Z,81.99
2023-02-19T01:43:55.115Z,82.19
2023-02-19T01:44:56.034Z,81.99
2023-02-19T01:45:56.891Z,81.57
2023-02-19T01:46:57.790Z,81.37
2023-02-19T01:47:58.653Z,81.05
2023-02-19T01:48:59.533Z,80.64
2023-02-19T01:50:00.430Z,81.57
2023-02-19T01:51:01.372Z,83.06
2023-02-19T01:52:02.249Z,83.16
2023-02-19T01:53:03.115Z,83.06
2023-02-19T01:54:04.012Z,82.95
2023-02-19T01:55:04.909Z,82.95
2023-02-19T01:56:05.783Z,82.65
2023-02-19T01:57:06.766Z,82.44
2023-02-19T01:58:07.594Z,82.54
2023-02-19T01:59:08.478Z,82.44
2023-02-19T02:00:09.345Z,82.86
2023-02-19T02:01:10.657Z,82.86
2023-02-19T02:02:10.759Z,82.95
2023-02-19T02:03:11.642Z,82.54
2023-02-19T02:04:12.486Z,82.75
2023-02-19T02:05:13.361Z,82.86
2023-02-19T02:06:14.251Z,82.86
2023-02-19T02:07:15.135Z,82.95
2023-02-19T02:08:16.024Z,82.89
2023-02-19T02:09:16.952Z,82.79
2023-02-19T02:10:17.786Z,83.20
2023-02-19T02:11:18.689Z,83.00
2023-02-19T02:12:19.591Z,82.58
2023-02-19T02:13:20.495Z,82.48
2023-02-19T02:14:21.378Z,82.37
2023-02-19T02:15:22.291Z,82.27
2023-02-19T02:16:23.236Z,82.48
2023-02-19T02:17:24.131Z,82.48
2023-02-19T02:18:24.998Z,82.58
2023-02-19T02:19:25.888Z,81.96
2023-02-19T02:20:26.780Z,82.27
2023-02-19T02:21:27.719Z,82.37
2023-02-19T02:22:28.572Z,82.17
2023-02-19T02:23:29.448Z,81.85
2023-02-19T02:24:30.349Z,83.00
2023-02-19T02:25:31.236Z,83.00
2023-02-19T02:26:32.124Z,83.31
2023-02-19T02:27:33.048Z,83.93
2023-02-19T02:28:33.893Z,83.86
2023-02-19T02:29:34.767Z,84.38
2023-02-19T02:30:35.648Z,84.07
2023-02-19T02:31:36.648Z,83.65
2023-02-19T02:32:37.504Z,83.45
2023-02-19T02:33:38.398Z,83.14
2023-02-19T02:34:39.257Z,83.34
2023-02-19T02:35:40.141Z,83.03
2023-02-19T02:36:41.049Z,83.14
2023-02-19T02:37:41.913Z,82.82
2023-02-19T02:38:42.795Z,83.03
2023-02-19T02:39:43.747Z,82.97
2023-02-19T02:40:44.570Z,83.07
2023-02-19T02:41:45.453Z,83.17
2023-02-19T02:42:46.343Z,82.86
2023-02-19T02:43:47.209Z,82.55
2023-02-19T02:44:48.093Z,82.86
2023-02-19T02:45:49.073Z,83.38
2023-02-19T02:46:49.923Z,83.17
2023-02-19T02:47:50.807Z,82.97
2023-02-19T02:48:51.688Z,83.32
2023-02-19T02:49:52.572Z,83.42
2023-02-19T02:50:53.456Z,83.42
2023-02-19T02:51:54.391Z,83.42
2023-02-19T02:52:55.246Z,84.05
2023-02-19T02:53:56.120Z,83.73
2023-02-19T02:54:57.003Z,83.94
2023-02-19T02:55:57.879Z,84.25
2023-02-19T02:56:58.775Z,83.53
2023-02-19T02:57:59.695Z,83.32
2023-02-19T02:59:00.554Z,83.53
2023-02-19T03:00:01.429Z,83.63
2023-02-19T03:01:02.358Z,83.63
2023-02-19T03:02:03.245Z,83.53
2023-02-19T03:03:04.082Z,83.84
2023-02-19T03:04:05.008Z,83.73
2023-02-19T03:05:05.860Z,83.84
2023-02-19T03:06:06.740Z,83.84
2023-02-19T03:07:07.656Z,83.42
2023-02-19T03:08:08.543Z,83.11
2023-02-19T03:09:09.444Z,83.22
2023-02-19T03:10:10.362Z,83.46
2023-02-19T03:11:11.475Z,83.87
2023-02-19T03:12:11.896Z,84.29
2023-02-19T03:13:12.780Z,83.67
2023-02-19T03:14:13.663Z,83.98
2023-02-19T03:15:14.545Z,84.08
2023-02-19T03:16:15.548Z,84.19
2023-02-19T03:17:16.406Z,84.29
2023-02-19T03:18:17.289Z,83.87
2023-02-19T03:19:18.187Z,83.98
2023-02-19T03:20:19.061Z,84.19
2023-02-19T03:21:19.936Z,84.29
2023-02-19T03:22:20.892Z,84.39
2023-02-19T03:23:21.728Z,84.12
2023-02-19T03:24:22.610Z,84.12
2023-02-19T03:25:23.530Z,84.01
2023-02-19T03:26:24.400Z,84.12
2023-02-19T03:27:25.292Z,84.01
2023-02-19T03:28:26.217Z,84.43
2023-02-19T03:29:27.088Z,84.12
2023-02-19T03:30:27.990Z,84.22
2023-02-19T03:31:28.979Z,84.12
2023-02-19T03:32:29.369Z,83.91
2023-02-19T03:33:30.257Z,84.01
2023-02-19T03:34:31.176Z,84.01
2023-02-19T03:35:32.063Z,84.01
2023-02-19T03:36:32.954Z,84.84
2023-02-19T03:37:33.837Z,85.05
2023-02-19T03:38:34.720Z,85.82
2023-02-19T03:39:35.618Z,85.82
2023-02-19T03:40:36.497Z,85.93
2023-02-19T03:41:37.368Z,85.51
2023-02-19T03:42:38.268Z,85.51
2023-02-19T03:43:39.145Z,85.20
2023-02-19T03:44:40.055Z,85.72
2023-02-19T03:45:40.983Z,85.82
2023-02-19T03:46:41.825Z,85.72
2023-02-19T03:47:42.714Z,85.30
2023-02-19T03:48:43.597Z,84.89
2023-02-19T03:49:44.479Z,84.78
2023-02-19T03:50:45.352Z,84.58
2023-02-19T03:51:46.237Z,84.78
2023-02-19T03:52:47.146Z,85.30
2023-02-19T03:53:48.017Z,85.30
2023-02-19T03:54:48.904Z,85.41
2023-02-19T03:55:49.782Z,86.03
2023-02-19T03:56:50.675Z,85.93
2023-02-19T03:57:51.597Z,86.27
2023-02-19T03:58:52.424Z,86.17
2023-02-19T03:59:53.306Z,86.27
2023-02-19T04:00:54.186Z,86.07
2023-02-19T04:01:55.080Z,86.17
2023-02-19T04:02:55.956Z,85.75
2023-02-19T04:03:56.841Z,85.96
2023-02-19T04:04:57.774Z,86.49
2023-02-19T04:05:58.602Z,86.27
2023-02-19T04:06:59.500Z,86.11
2023-02-19T04:08:00.412Z,86.11
2023-02-19T04:09:01.304Z,86.32
2023-02-19T04:10:02.218Z,86.27
2023-02-19T04:11:03.131Z,86.38
2023-02-19T04:12:03.987Z,86.27
2023-02-19T04:13:04.888Z,86.27
2023-02-19T04:14:05.798Z,86.17
2023-02-19T04:15:06.697Z,86.17
2023-02-19T04:16:07.596Z,86.27
2023-02-19T04:17:08.492Z,86.59
2023-02-19T04:18:09.402Z,85.65
2023-02-19T04:19:10.270Z,86.38
2023-02-19T04:20:11.162Z,86.49
2023-02-19T04:21:12.377Z,85.86
2023-02-19T04:22:12.830Z,85.86
2023-02-19T04:23:13.727Z,85.96
2023-02-19T04:24:14.611Z,85.86
2023-02-19T04:25:15.500Z,86.27
2023-02-19T04:26:16.416Z,86.38
2023-02-19T04:27:17.242Z,85.86
2023-02-19T04:28:18.125Z,85.65
2023-02-19T04:29:19.005Z,86.27
2023-02-19T04:30:19.900Z,86.27
2023-02-19T04:31:20.957Z,86.59
2023-02-19T04:32:21.342Z,86.49
2023-02-19T04:33:22.240Z,86.27
2023-02-19T04:34:23.127Z,86.49
2023-02-19T04:35:24.010Z,86.38
2023-02-19T04:36:24.893Z,85.75
2023-02-19T04:37:25.797Z,85.96
2023-02-19T04:38:26.704Z,85.75
2023-02-19T04:39:27.585Z,86.07
2023-02-19T04:40:28.445Z,86.17
2023-02-19T04:41:29.332Z,86.27
2023-02-19T04:42:30.220Z,86.27
2023-02-19T04:43:31.106Z,86.38
2023-02-19T04:44:31.993Z,86.80
2023-02-19T04:45:32.869Z,87.01
2023-02-19T04:46:33.754Z,86.69
2023-02-19T04:47:34.645Z,86.69
2023-02-19T04:48:35.529Z,86.90
2023-02-19T04:49:36.416Z,87.21
2023-02-19T04:50:37.287Z,87.32
2023-02-19T04:51:38.180Z,87.84
2023-02-19T04:52:39.061Z,88.15
2023-02-19T04:53:39.951Z,88.35
2023-02-19T04:54:40.830Z,87.94
2023-02-19T04:55:41.706Z,88.35
2023-02-19T04:56:42.580Z,88.98
2023-02-19T04:57:43.470Z,88.77
2023-02-19T04:58:44.343Z,88.98
2023-02-19T04:59:45.229Z,88.98
2023-02-19T05:00:46.118Z,88.87
2023-02-19T05:01:47.095Z,88.98
2023-02-19T05:02:47.513Z,89.39
2023-02-19T05:03:48.386Z,89.39
2023-02-19T05:04:49.271Z,89.18
2023-02-19T05:05:50.152Z,89.15
2023-02-19T05:06:51.027Z,88.84
2023-02-19T05:07:51.924Z,88.62
2023-02-19T05:08:52.806Z,88.52
2023-02-19T05:09:53.721Z,88.56
2023-02-19T05:10:54.573Z,88.87
2023-02-19T05:11:55.453Z,88.98
2023-02-19T05:12:58.021Z,89.15
2023-02-19T05:13:56.984Z,89.67
2023-02-19T05:14:57.889Z,90.70
2023-02-19T05:15:58.893Z,91.12
2023-02-19T05:16:59.726Z,92.16
2023-02-19T05:18:00.651Z,92.57
2023-02-19T05:19:01.509Z,92.94
2023-02-19T05:20:02.439Z,94.20
2023-02-19T05:21:03.283Z,94.67
2023-02-19T05:22:04.175Z,94.15
2023-02-19T05:23:05.081Z,93.63
2023-02-19T05:24:05.985Z,92.76
2023-02-19T05:25:06.846Z,91.78
2023-02-19T05:26:07.729Z,91.37
2023-02-19T05:27:08.611Z,90.85
2023-02-19T05:28:09.510Z,91.47
2023-02-19T05:29:10.394Z,92.68
2023-02-19T05:30:11.342Z,91.91
2023-02-19T05:31:12.598Z,91.14
2023-02-19T05:32:12.741Z,89.34
2023-02-19T05:33:13.598Z,88.82
2023-02-19T05:34:14.475Z,88.36
2023-02-19T05:35:15.357Z,88.06
2023-02-19T05:36:16.288Z,88.26
2023-02-19T05:37:17.126Z,87.74
2023-02-19T05:38:18.038Z,87.43
2023-02-19T05:39:18.917Z,87.33
2023-02-19T05:40:19.800Z,87.74
2023-02-19T05:41:20.673Z,87.64
2023-02-19T05:42:21.595Z,87.85
2023-02-19T05:43:22.474Z,87.54
2023-02-19T05:44:23.372Z,86.91
2023-02-19T05:45:24.271Z,86.50
2023-02-19T05:46:25.230Z,86.19
2023-02-19T05:47:26.091Z,85.78
2023-02-19T05:48:27.061Z,85.61
2023-02-19T05:49:27.918Z,85.61
2023-02-19T05:50:28.778Z,85.40
2023-02-19T05:51:29.742Z,85.34
2023-02-19T05:52:30.623Z,85.34
2023-02-19T05:53:31.533Z,85.86
2023-02-19T05:54:32.464Z,85.89
2023-02-19T05:55:33.300Z,87.04
2023-02-19T05:56:34.201Z,86.83
2023-02-19T05:57:35.098Z,86.62
2023-02-19T05:58:36.027Z,86.83
2023-02-19T05:59:36.875Z,87.28
2023-02-19T06:00:37.784Z,87.70
2023-02-19T06:01:38.648Z,87.90
2023-02-19T06:02:39.536Z,87.90
2023-02-19T06:03:40.343Z,87.90
2023-02-19T06:04:41.159Z,88.11
2023-02-19T06:05:41.990Z,88.01
2023-02-19T06:06:42.857Z,87.90
2023-02-19T06:07:43.656Z,88.32
2023-02-19T06:08:44.499Z,88.11
2023-02-19T06:09:45.375Z,88.01
2023-02-19T06:10:46.279Z,88.21
2023-02-19T06:11:47.144Z,87.90
2023-02-19T06:12:48.061Z,87.70
2023-02-19T06:13:48.885Z,87.59
2023-02-19T06:14:49.718Z,87.59
2023-02-19T06:15:50.596Z,88.01
2023-02-19T06:16:51.381Z,87.70
2023-02-19T06:17:52.207Z,88.01
2023-02-19T06:18:53.091Z,88.32
2023-02-19T06:19:53.893Z,88.94
2023-02-19T06:20:54.715Z,88.90
2023-02-19T06:21:55.547Z,88.59
2023-02-19T06:22:56.384Z,88.59
2023-02-19T06:23:57.208Z,88.18
2023-02-19T06:24:58.033Z,88.39
2023-02-19T06:25:58.933Z,88.28
2023-02-19T06:26:59.709Z,88.59
2023-02-19T06:28:00.532Z,88.69
2023-02-19T06:29:01.369Z,88.39
2023-02-19T06:30:02.248Z,88.39
2023-02-19T06:31:03.070Z,88.39
2023-02-19T06:32:03.973Z,88.59
2023-02-19T06:33:04.763Z,88.79
2023-02-19T06:34:05.635Z,89.00
2023-02-19T06:35:06.430Z,88.59
2023-02-19T06:36:07.273Z,88.69
2023-02-19T06:37:08.114Z,88.28
2023-02-19T06:38:08.912Z,88.39
2023-02-19T06:39:09.747Z,88.28
2023-02-19T06:40:10.566Z,88.59
2023-02-19T06:41:11.737Z,88.69
2023-02-19T06:42:12.191Z,88.69
2023-02-19T06:43:12.991Z,88.39
2023-02-19T06:44:13.860Z,88.39
2023-02-19T06:45:14.700Z,88.39
2023-02-19T06:46:15.576Z,88.39
2023-02-19T06:47:16.391Z,88.79
2023-02-19T06:48:17.224Z,88.90
2023-02-19T06:49:18.074Z,88.59
2023-02-19T06:50:18.882Z,88.79
2023-02-19T06:51:19.721Z,88.18
2023-02-19T06:52:20.608Z,88.59
2023-02-19T06:53:21.393Z,88.69
2023-02-19T06:54:22.229Z,88.48
2023-02-19T06:55:23.060Z,88.39
2023-02-19T06:56:23.889Z,88.59
2023-02-19T06:57:24.732Z,88.79
2023-02-19T06:58:25.566Z,88.39
2023-02-19T06:59:26.396Z,88.48
2023-02-19T07:00:27.217Z,88.48
2023-02-19T07:01:28.065Z,88.69
2023-02-19T07:02:28.873Z,88.69
2023-02-19T07:03:29.714Z,88.79
2023-02-19T07:04:30.667Z,88.90
2023-02-19T07:05:31.491Z,88.48
2023-02-19T07:06:32.325Z,88.45
2023-02-19T07:07:33.187Z,88.45
2023-02-19T07:08:34.000Z,88.76
2023-02-19T07:09:34.832Z,88.34
2023-02-19T07:10:35.660Z,88.24
2023-02-19T07:11:36.586Z,88.55
2023-02-19T07:12:37.366Z,88.45
2023-02-19T07:13:38.191Z,88.55
2023-02-19T07:14:39.020Z,88.55
2023-02-19T07:15:39.871Z,88.34
2023-02-19T07:16:40.727Z,88.34
2023-02-19T07:17:41.525Z,88.45
2023-02-19T07:18:42.396Z,88.55
2023-02-19T07:19:43.262Z,88.34
2023-02-19T07:20:44.034Z,88.13
2023-02-19T07:21:44.870Z,88.65
2023-02-19T07:22:45.693Z,88.86
2023-02-19T07:23:46.525Z,88.65
2023-02-19T07:24:48.028Z,88.45
2023-02-19T07:25:47.907Z,88.34
2023-02-19T07:26:48.691Z,88.13
2023-02-19T07:27:49.511Z,88.24
2023-02-19T07:28:50.386Z,88.45
2023-02-19T07:29:51.200Z,88.20
2023-02-19T07:30:52.100Z,88.09
2023-02-19T07:31:52.941Z,88.20
2023-02-19T07:32:53.739Z,88.30
2023-02-19T07:33:54.575Z,88.40
2023-02-19T07:34:55.409Z,88.09
2023-02-19T07:35:56.251Z,87.68
2023-02-19T07:36:57.076Z,87.88
2023-02-19T07:37:57.898Z,88.20
2023-02-19T07:38:58.726Z,88.40
2023-02-19T07:39:59.569Z,88.09
2023-02-19T07:41:00.395Z,87.99
2023-02-19T07:42:01.227Z,88.09
2023-02-19T07:43:02.088Z,88.09
2023-02-19T07:44:02.890Z,87.68
2023-02-19T07:45:03.735Z,87.95
2023-02-19T07:46:04.638Z,88.06
2023-02-19T07:47:05.490Z,88.26
2023-02-19T07:48:06.275Z,87.85
2023-02-19T07:49:07.106Z,87.12
2023-02-19T07:50:07.942Z,86.91
2023-02-19T07:51:08.958Z,87.33
2023-02-19T07:52:09.411Z,87.95
2023-02-19T07:53:10.175Z,87.74
2023-02-19T07:54:11.002Z,83.87
2023-02-19T07:55:11.889Z,82.12
2023-02-19T07:56:12.745Z,84.29
2023-02-19T07:57:13.563Z,85.39
2023-02-19T07:58:14.396Z,83.42
2023-02-19T07:59:15.220Z,83.42
2023-02-19T08:00:16.058Z,84.15
2023-02-19T08:01:16.967Z,84.97
2023-02-19T08:02:17.736Z,85.18
2023-02-19T08:03:18.592Z,85.24
2023-02-19T08:04:19.443Z,85.35
2023-02-19T08:05:20.248Z,85.45
2023-02-19T08:06:21.085Z,85.45
2023-02-19T08:07:22.046Z,85.24
2023-02-19T08:08:22.798Z,84.21
2023-02-19T08:09:23.645Z,83.70
2023-02-19T08:10:24.471Z,83.49
2023-02-19T08:11:25.298Z,83.90
2023-02-19T08:12:26.184Z,84.42
2023-02-19T08:13:26.974Z,84.42
2023-02-19T08:14:27.809Z,84.21
2023-02-19T08:15:28.649Z,84.21
2023-02-19T08:16:42.679Z,84.31
2023-02-19T08:17:31.479Z,83.86
2023-02-19T08:18:30.762Z,84.07
2023-02-19T08:19:31.587Z,84.79
2023-02-19T08:20:32.423Z,85.31
2023-02-19T08:21:34.426Z,85.52
2023-02-19T08:22:33.856Z,85.41
2023-02-19T08:23:34.651Z,85.00
2023-02-19T08:24:35.472Z,84.79
2023-02-19T08:25:36.314Z,84.89
2023-02-19T08:26:37.145Z,85.31
2023-02-19T08:27:37.982Z,85.31
2023-02-19T08:28:38.815Z,85.10
2023-02-19T08:29:39.642Z,84.69
2023-02-19T08:30:40.554Z,83.97
2023-02-19T08:31:41.411Z,84.38
2023-02-19T08:32:42.203Z,84.38
2023-02-19T08:33:43.038Z,84.59
2023-02-19T08:34:43.852Z,84.48
2023-02-19T08:35:44.693Z,83.97
2023-02-19T08:36:45.521Z,83.97
2023-02-19T08:37:46.343Z,84.38
2023-02-19T08:38:47.184Z,84.17
2023-02-19T08:39:48.007Z,82.93
2023-02-19T08:40:48.847Z,82.73
2023-02-19T08:41:49.674Z,82.93
2023-02-19T08:42:50.493Z,83.10
2023-02-19T08:43:51.327Z,83.20
2023-02-19T08:44:52.167Z,83.31
2023-02-19T08:45:53.012Z,83.51
2023-02-19T08:46:53.827Z,83.72
2023-02-19T08:47:54.650Z,83.83
2023-02-19T08:48:55.498Z,83.83
2023-02-19T08:49:56.335Z,83.72
2023-02-19T08:50:57.176Z,83.62
2023-02-19T08:51:58.010Z,83.51
2023-02-19T08:52:58.817Z,83.62
2023-02-19T08:53:59.641Z,83.72
2023-02-19T08:55:00.467Z,83.68
2023-02-19T08:56:01.439Z,83.78
2023-02-19T08:57:02.279Z,84.30
2023-02-19T08:58:03.097Z,84.72
2023-02-19T08:59:03.917Z,84.61
2023-02-19T09:00:04.746Z,85.02
2023-02-19T09:01:05.631Z,85.02
2023-02-19T09:02:06.423Z,85.33
2023-02-19T09:03:07.254Z,85.64
2023-02-19T09:04:08.107Z,85.75
2023-02-19T09:05:08.903Z,85.95
2023-02-19T09:06:10.093Z,85.64
2023-02-19T09:07:10.532Z,85.44
2023-02-19T09:08:11.362Z,85.50
2023-02-19T09:09:12.192Z,85.60
2023-02-19T09:10:13.026Z,85.19
2023-02-19T09:11:14.212Z,85.39
2023-02-19T09:12:14.657Z,85.81
2023-02-19T09:13:15.473Z,86.12
2023-02-19T09:14:16.302Z,85.81
2023-02-19T09:15:17.130Z,85.30
2023-02-19T09:16:17.965Z,85.39
2023-02-19T09:17:18.809Z,85.30
2023-02-19T09:18:19.625Z,84.47
2023-02-19T09:19:20.452Z,83.81
2023-02-19T09:20:21.288Z,83.61
2023-02-19T09:21:22.120Z,84.22
2023-02-19T09:22:22.949Z,83.29
2023-02-19T09:23:23.774Z,82.98
2023-02-19T09:24:24.611Z,82.47
2023-02-19T09:25:25.435Z,82.68
2023-02-19T09:26:26.293Z,82.54
2023-02-19T09:27:27.233Z,81.92
2023-02-19T09:28:28.097Z,81.30
2023-02-19T09:29:28.886Z,81.71
2023-02-19T09:30:29.751Z,81.61
2023-02-19T09:31:30.718Z,81.51
2023-02-19T09:32:31.038Z,81.57
2023-02-19T09:33:31.874Z,81.47
2023-02-19T09:34:32.710Z,80.13
2023-02-19T09:35:33.526Z,80.02
2023-02-19T09:36:34.375Z,79.41
2023-02-19T09:37:35.199Z,79.30
2023-02-19T09:38:36.026Z,79.61
2023-02-19T09:39:36.857Z,79.47
2023-02-19T09:40:37.681Z,79.68
2023-02-19T09:41:38.509Z,79.88
2023-02-19T09:42:39.343Z,79.99
2023-02-19T09:43:40.178Z,79.68
2023-02-19T09:44:40.998Z,79.06
2023-02-19T09:45:41.815Z,78.65
2023-02-19T09:46:42.652Z,78.24
2023-02-19T09:47:43.474Z,78.10
2023-02-19T09:48:44.300Z,77.69
2023-02-19T09:49:45.138Z,77.48
2023-02-19T09:50:45.957Z,77.38
2023-02-19T09:51:46.802Z,77.38
2023-02-19T09:52:47.617Z,76.97
2023-02-19T09:53:48.434Z,76.97
2023-02-19T09:54:49.267Z,76.83
2023-02-19T09:55:50.118Z,77.24
2023-02-19T09:56:50.937Z,76.73
2023-02-19T09:57:51.438Z,76.21
2023-02-19T09:58:52.253Z,76.11
2023-02-19T09:59:53.080Z,76.01
2023-02-19T10:00:53.943Z,76.21
2023-02-19T10:01:54.838Z,76.52
2023-02-19T10:02:55.608Z,76.83
2023-02-19T10:03:56.440Z,77.62
2023-02-19T10:04:57.287Z,77.31
2023-02-19T10:05:58.085Z,77.20
2023-02-19T10:06:58.922Z,76.79
2023-02-19T10:07:59.755Z,76.90
2023-02-19T10:09:00.582Z,76.79
2023-02-19T10:10:01.422Z,76.69
2023-02-19T10:11:02.235Z,76.48
2023-02-19T10:12:03.064Z,76.69
2023-02-19T10:13:03.892Z,76.69
2023-02-19T10:14:04.723Z,76.90
2023-02-19T10:15:05.547Z,77.00
2023-02-19T10:16:06.465Z,76.59
2023-02-19T10:17:07.289Z,76.69
2023-02-19T10:18:10.888Z,77.10
2023-02-19T10:19:08.969Z,77.10
2023-02-19T10:20:09.793Z,77.20
2023-02-19T10:21:11.030Z,77.51
2023-02-19T10:22:11.460Z,77.92
2023-02-19T10:23:12.288Z,78.33
2023-02-19T10:24:13.107Z,78.54
2023-02-19T10:25:13.938Z,78.33
2023-02-19T10:26:14.763Z,78.27
2023-02-19T10:27:15.600Z,78.78
2023-02-19T10:28:16.424Z,78.89
2023-02-19T10:29:17.253Z,79.40
2023-02-19T10:30:18.139Z,79.50
2023-02-19T10:31:20.819Z,80.02
2023-02-19T10:32:19.876Z,80.22
2023-02-19T10:33:20.654Z,80.22
2023-02-19T10:34:21.474Z,80.02
2023-02-19T10:35:22.317Z,80.63
2023-02-19T10:36:23.132Z,80.43
2023-02-19T10:37:23.974Z,80.74
2023-02-19T10:38:24.810Z,80.67
2023-02-19T10:39:25.632Z,81.09
2023-02-19T10:40:26.463Z,81.09
2023-02-19T10:41:27.291Z,80.77
2023-02-19T10:42:28.124Z,80.88
2023-02-19T10:43:28.955Z,81.09
2023-02-19T10:44:29.799Z,81.19
2023-02-19T10:45:30.612Z,80.98
2023-02-19T10:46:31.436Z,81.39
2023-02-19T10:47:32.266Z,82.11
2023-02-19T10:48:33.123Z,81.97
2023-02-19T10:49:33.915Z,82.18
2023-02-19T10:50:34.749Z,80.74
2023-02-19T10:51:35.588Z,79.91
2023-02-19T10:52:36.414Z,79.81
2023-02-19T10:53:37.244Z,80.53
2023-02-19T10:54:38.073Z,81.25
2023-02-19T10:55:38.919Z,82.18
2023-02-19T10:56:39.740Z,81.83
2023-02-19T10:57:40.598Z,80.08
2023-02-19T10:58:41.420Z,79.88
2023-02-19T10:59:42.248Z,79.67
2023-02-19T11:00:43.093Z,79.36
2023-02-19T11:01:43.982Z,78.85
2023-02-19T11:02:44.779Z,78.96
2023-02-19T11:03:45.599Z,79.05
2023-02-19T11:04:46.430Z,79.47
2023-02-19T11:05:47.249Z,78.64
2023-02-19T11:06:48.089Z,78.54
2023-02-19T11:07:48.912Z,78.13
2023-02-19T11:08:49.770Z,78.54
2023-02-19T11:09:50.568Z,78.23
2023-02-19T11:10:51.388Z,78.75
2023-02-19T11:11:52.242Z,78.54
2023-02-19T11:12:53.066Z,78.03
2023-02-19T11:13:53.889Z,78.30
2023-02-19T11:14:54.719Z,77.48
2023-02-19T11:15:55.589Z,76.97
2023-02-19T11:16:56.526Z,76.65
2023-02-19T11:17:57.292Z,76.97
2023-02-19T11:18:58.113Z,77.27
2023-02-19T11:19:58.968Z,77.06
2023-02-19T11:20:59.767Z,77.27
2023-02-19T11:22:00.616Z,77.37
2023-02-19T11:23:01.454Z,77.48
2023-02-19T11:24:02.259Z,77.23
2023-02-19T11:25:03.086Z,76.82
2023-02-19T11:26:03.921Z,77.55
2023-02-19T11:27:04.764Z,78.27
2023-02-19T11:28:05.586Z,77.34
2023-02-19T11:29:06.408Z,76.31
2023-02-19T11:30:07.322Z,75.70
2023-02-19T11:31:07.852Z,74.87
2023-02-19T11:32:08.768Z,73.54
2023-02-19T11:33:09.796Z,73.33
2023-02-19T11:34:10.571Z,72.92
2023-02-19T11:35:11.423Z,73.54
2023-02-19T11:36:12.233Z,73.33
2023-02-19T11:37:13.059Z,73.02
2023-02-19T11:38:13.894Z,72.31
2023-02-19T11:39:14.770Z,72.92
2023-02-19T11:40:15.571Z,72.31
2023-02-19T11:41:16.388Z,72.20
2023-02-19T11:42:17.321Z,72.31
2023-02-19T11:43:18.095Z,71.28
2023-02-19T11:44:18.925Z,71.17
2023-02-19T11:45:19.743Z,71.17
2023-02-19T11:46:20.644Z,71.89
2023-02-19T11:47:21.433Z,71.48
2023-02-19T11:48:22.257Z,71.28
2023-02-19T11:49:23.080Z,70.66
2023-02-19T11:50:23.919Z,70.87
2023-02-19T11:51:24.728Z,71.25
2023-02-19T11:52:25.554Z,71.14
2023-02-19T11:53:26.405Z,70.22
2023-02-19T11:54:27.214Z,69.29
2023-02-19T11:55:28.035Z,68.68
2023-02-19T11:56:28.863Z,68.78
2023-02-19T11:57:29.690Z,68.68
2023-02-19T11:58:30.521Z,68.57
2023-02-19T11:59:31.361Z,69.19
2023-02-19T12:00:32.191Z,68.78
2023-02-19T12:01:33.020Z,69.19
2023-02-19T12:02:33.835Z,68.88
2023-02-19T12:03:34.662Z,68.88
2023-02-19T12:04:37.681Z,68.88
2023-02-19T12:05:36.101Z,69.06
2023-02-19T12:06:36.928Z,69.16
2023-02-19T12:07:37.768Z,68.34
2023-02-19T12:08:38.586Z,68.03
2023-02-19T12:09:39.409Z,67.62
2023-02-19T12:10:40.233Z,67.52
2023-02-19T12:11:41.052Z,67.93
2023-02-19T12:12:41.884Z,67.52
2023-02-19T12:13:42.735Z,67.62
2023-02-19T12:14:43.560Z,68.54
2023-02-19T12:15:44.380Z,67.93
2023-02-19T12:16:45.262Z,66.39
2023-02-19T12:17:46.034Z,64.92
2023-02-19T12:18:46.880Z,65.54
2023-02-19T12:19:47.692Z,66.16
2023-02-19T12:20:48.530Z,66.25
2023-02-19T12:21:49.357Z,65.84
2023-02-19T12:22:50.177Z,66.05
2023-02-19T12:23:51.019Z,66.36
2023-02-19T12:24:51.862Z,66.25
2023-02-19T12:25:52.673Z,66.16
2023-02-19T12:26:53.495Z,66.05
2023-02-19T12:27:54.328Z,65.95
2023-02-19T12:28:55.152Z,66.16
2023-02-19T12:29:55.971Z,66.25
2023-02-19T12:30:56.830Z,66.28
2023-02-19T12:31:57.812Z,66.28
2023-02-19T12:32:58.168Z,66.28
2023-02-19T12:33:59.019Z,66.08
2023-02-19T12:34:59.840Z,66.49
2023-02-19T12:36:00.675Z,66.28
2023-02-19T12:37:01.493Z,66.60
2023-02-19T12:38:02.319Z,66.60
2023-02-19T12:39:03.150Z,66.80
2023-02-19T12:40:03.973Z,66.90
2023-02-19T12:41:04.800Z,66.49
2023-02-19T12:42:05.636Z,65.98
2023-02-19T12:43:06.898Z,65.98
2023-02-19T12:44:07.190Z,65.98
2023-02-19T12:45:08.023Z,65.98
2023-02-19T12:46:09.008Z,66.28
2023-02-19T12:47:09.838Z,66.80
2023-02-19T12:48:10.646Z,67.41
2023-02-19T12:49:11.483Z,67.32
2023-02-19T12:50:12.310Z,66.39
2023-02-19T12:51:13.132Z,66.08
2023-02-19T12:52:13.955Z,66.19
2023-02-19T12:53:14.782Z,66.39
2023-02-19T12:54:15.630Z,66.19
2023-02-19T12:55:16.454Z,66.28
2023-02-19T12:56:17.296Z,66.28
2023-02-19T12:57:18.114Z,66.31
2023-02-19T12:58:18.941Z,66.52
2023-02-19T12:59:19.773Z,66.73
2023-02-19T13:00:20.614Z,66.83
2023-02-19T13:01:21.490Z,66.63
2023-02-19T13:02:22.330Z,66.93
2023-02-19T13:03:23.141Z,66.42